Terminal Aerodrome Forecast
Issued by NWS

Home | Current Version | Previous Version | Text Only | Print | Product List | Glossary On
Versions: 1 2 3 4 5 6 7 8 9 10 11 12 13 14 15 16 17 18 19 20 21 22 23 24
000
FTUS43 KDLH 030500
TAFHIB
TAF
KHIB 030527Z 0306/0406 18010KT P6SM OVC080
     FM031000 19012KT 5SM -SN SCT025 OVC050
      TEMPO 0310/0313 2SM -SN BKN020
     FM031400 23008KT 1SM -SN OVC015
     FM031800 27014G20KT 4SM -SN BLSN SCT015 OVC025
     FM032100 31016G28KT 6SM BLSN OVC030=

USA.gov is the U.S. government's official web portal to all federal, state and local government web resources and services.